sensor_id;sensor_type;location;lat;lon;timestamp;P1;durP1;ratioP1;P2;durP2;ratioP2
66139;SDS011;52945;51.908;8.364;2023-01-23T00:01:02;8.93;;;4.18;;
66139;SDS011;52945;51.908;8.364;2023-01-23T00:04:04;10.32;;;4.40;;
66139;SDS011;52945;51.908;8.364;2023-01-23T00:07:05;8.77;;;3.92;;
66139;SDS011;52945;51.908;8.364;2023-01-23T00:10:05;6.82;;;3.95;;
66139;SDS011;52945;51.908;8.364;2023-01-23T00:13:06;8.90;;;4.03;;
66139;SDS011;52945;51.908;8.364;2023-01-23T00:16:08;14.15;;;4.80;;
66139;SDS011;52945;51.908;8.364;2023-01-23T00:19:10;11.60;;;4.57;;
66139;SDS011;52945;51.908;8.364;2023-01-23T00:22:11;11.23;;;4.72;;
66139;SDS011;52945;51.908;8.364;2023-01-23T00:25:14;7.70;;;4.30;;
66139;SDS011;52945;51.908;8.364;2023-01-23T00:28:14;9.93;;;4.57;;
66139;SDS011;52945;51.908;8.364;2023-01-23T00:31:17;10.00;;;4.20;;
66139;SDS011;52945;51.908;8.364;2023-01-23T00:34:21;9.65;;;5.70;;
66139;SDS011;52945;51.908;8.364;2023-01-23T00:37:21;9.32;;;4.80;;
66139;SDS011;52945;51.908;8.364;2023-01-23T00:40:22;8.63;;;3.88;;
66139;SDS011;52945;51.908;8.364;2023-01-23T00:43:23;8.77;;;4.65;;
66139;SDS011;52945;51.908;8.364;2023-01-23T00:46:24;9.02;;;4.43;;
66139;SDS011;52945;51.908;8.364;2023-01-23T00:49:24;12.93;;;5.03;;
66139;SDS011;52945;51.908;8.364;2023-01-23T00:52:25;11.90;;;4.88;;
66139;SDS011;52945;51.908;8.364;2023-01-23T00:55:26;10.20;;;4.20;;
66139;SDS011;52945;51.908;8.364;2023-01-23T00:58:26;9.93;;;4.20;;
66139;SDS011;52945;51.908;8.364;2023-01-23T01:01:27;12.95;;;4.72;;
66139;SDS011;52945;51.908;8.364;2023-01-23T01:04:30;10.20;;;3.95;;
66139;SDS011;52945;51.908;8.364;2023-01-23T01:07:30;9.95;;;4.70;;
66139;SDS011;52945;51.908;8.364;2023-01-23T01:10:31;10.23;;;4.60;;
66139;SDS011;52945;51.908;8.364;2023-01-23T01:13:33;12.70;;;4.47;;
66139;SDS011;52945;51.908;8.364;2023-01-23T01:16:34;10.13;;;4.32;;
66139;SDS011;52945;51.908;8.364;2023-01-23T01:19:35;11.13;;;4.95;;
66139;SDS011;52945;51.908;8.364;2023-01-23T01:22:35;9.55;;;4.63;;
66139;SDS011;52945;51.908;8.364;2023-01-23T01:25:36;10.75;;;4.47;;
66139;SDS011;52945;51.908;8.364;2023-01-23T01:28:37;10.93;;;4.88;;
66139;SDS011;52945;51.908;8.364;2023-01-23T01:31:39;11.25;;;5.05;;
66139;SDS011;52945;51.908;8.364;2023-01-23T01:34:39;11.05;;;4.30;;
66139;SDS011;52945;51.908;8.364;2023-01-23T01:37:40;11.05;;;4.88;;
66139;SDS011;52945;51.908;8.364;2023-01-23T01:40:41;9.95;;;4.03;;
66139;SDS011;52945;51.908;8.364;2023-01-23T01:43:41;12.23;;;4.45;;
66139;SDS011;52945;51.908;8.364;2023-01-23T01:46:42;10.27;;;4.35;;
66139;SDS011;52945;51.908;8.364;2023-01-23T01:49:44;12.40;;;4.25;;
66139;SDS011;52945;51.908;8.364;2023-01-23T01:52:45;9.43;;;3.70;;
66139;SDS011;52945;51.908;8.364;2023-01-23T01:55:46;15.93;;;5.22;;
66139;SDS011;52945;51.908;8.364;2023-01-23T01:58:48;12.93;;;4.80;;
66139;SDS011;52945;51.908;8.364;2023-01-23T02:01:52;11.95;;;4.22;;
66139;SDS011;52945;51.908;8.364;2023-01-23T02:05:08;11.88;;;5.03;;
66139;SDS011;52945;51.908;8.364;2023-01-23T02:11:37;11.52;;;4.85;;
66139;SDS011;52945;51.908;8.364;2023-01-23T02:14:38;10.82;;;5.35;;
66139;SDS011;52945;51.908;8.364;2023-01-23T02:17:38;10.85;;;4.25;;
66139;SDS011;52945;51.908;8.364;2023-01-23T02:20:39;11.80;;;5.70;;
66139;SDS011;52945;51.908;8.364;2023-01-23T02:26:56;13.93;;;4.63;;
66139;SDS011;52945;51.908;8.364;2023-01-23T02:29:56;12.15;;;4.13;;
66139;SDS011;52945;51.908;8.364;2023-01-23T02:33:07;11.75;;;3.90;;
66139;SDS011;52945;51.908;8.364;2023-01-23T02:36:09;10.52;;;4.47;;
66139;SDS011;52945;51.908;8.364;2023-01-23T02:39:11;10.90;;;5.20;;
66139;SDS011;52945;51.908;8.364;2023-01-23T02:42:14;8.98;;;3.90;;
66139;SDS011;52945;51.908;8.364;2023-01-23T02:45:14;8.02;;;4.00;;
66139;SDS011;52945;51.908;8.364;2023-01-23T02:48:15;11.80;;;4.20;;
66139;SDS011;52945;51.908;8.364;2023-01-23T02:51:16;10.35;;;3.90;;
66139;SDS011;52945;51.908;8.364;2023-01-23T02:54:16;9.52;;;4.75;;
66139;SDS011;52945;51.908;8.364;2023-01-23T02:57:17;12.65;;;5.60;;
66139;SDS011;52945;51.908;8.364;2023-01-23T03:00:18;12.73;;;4.43;;
66139;SDS011;52945;51.908;8.364;2023-01-23T03:03:21;14.07;;;4.20;;
66139;SDS011;52945;51.908;8.364;2023-01-23T03:06:22;9.82;;;4.10;;
66139;SDS011;52945;51.908;8.364;2023-01-23T03:09:23;8.40;;;3.78;;
66139;SDS011;52945;51.908;8.364;2023-01-23T03:12:24;12.18;;;4.32;;
66139;SDS011;52945;51.908;8.364;2023-01-23T03:15:25;9.25;;;3.45;;
66139;SDS011;52945;51.908;8.364;2023-01-23T03:18:25;8.05;;;3.78;;
66139;SDS011;52945;51.908;8.364;2023-01-23T03:21:26;9.25;;;3.80;;
66139;SDS011;52945;51.908;8.364;2023-01-23T03:24:27;9.43;;;4.03;;
66139;SDS011;52945;51.908;8.364;2023-01-23T03:27:28;8.65;;;3.95;;
66139;SDS011;52945;51.908;8.364;2023-01-23T03:30:28;12.07;;;4.03;;
66139;SDS011;52945;51.908;8.364;2023-01-23T03:33:29;8.60;;;3.45;;
66139;SDS011;52945;51.908;8.364;2023-01-23T03:36:29;7.28;;;3.85;;
66139;SDS011;52945;51.908;8.364;2023-01-23T03:39:30;9.23;;;4.10;;
66139;SDS011;52945;51.908;8.364;2023-01-23T03:42:49;11.25;;;4.15;;
66139;SDS011;52945;51.908;8.364;2023-01-23T03:45:49;7.57;;;3.67;;
66139;SDS011;52945;51.908;8.364;2023-01-23T03:48:50;5.80;;;3.15;;
66139;SDS011;52945;51.908;8.364;2023-01-23T03:51:51;8.32;;;3.42;;
66139;SDS011;52945;51.908;8.364;2023-01-23T03:54:51;9.57;;;3.55;;
66139;SDS011;52945;51.908;8.364;2023-01-23T03:57:52;11.40;;;4.90;;
66139;SDS011;52945;51.908;8.364;2023-01-23T04:00:52;12.07;;;3.53;;
66139;SDS011;52945;51.908;8.364;2023-01-23T04:03:54;13.15;;;4.85;;
66139;SDS011;52945;51.908;8.364;2023-01-23T04:06:54;13.73;;;4.63;;
66139;SDS011;52945;51.908;8.364;2023-01-23T04:09:55;12.93;;;4.20;;
66139;SDS011;52945;51.908;8.364;2023-01-23T04:12:55;9.75;;;3.83;;
66139;SDS011;52945;51.908;8.364;2023-01-23T04:15:56;6.32;;;2.83;;
66139;SDS011;52945;51.908;8.364;2023-01-23T04:18:56;8.38;;;4.50;;
66139;SDS011;52945;51.908;8.364;2023-01-23T04:21:57;9.18;;;3.97;;
66139;SDS011;52945;51.908;8.364;2023-01-23T04:24:58;11.77;;;4.13;;
66139;SDS011;52945;51.908;8.364;2023-01-23T04:27:58;14.75;;;5.07;;
66139;SDS011;52945;51.908;8.364;2023-01-23T04:30:59;13.40;;;4.78;;
66139;SDS011;52945;51.908;8.364;2023-01-23T04:33:59;8.40;;;3.83;;
66139;SDS011;52945;51.908;8.364;2023-01-23T04:37:00;13.15;;;4.78;;
66139;SDS011;52945;51.908;8.364;2023-01-23T04:40:00;9.85;;;3.47;;
66139;SDS011;52945;51.908;8.364;2023-01-23T04:43:01;11.98;;;4.10;;
66139;SDS011;52945;51.908;8.364;2023-01-23T04:46:02;12.93;;;4.78;;
66139;SDS011;52945;51.908;8.364;2023-01-23T04:49:02;10.47;;;3.47;;
66139;SDS011;52945;51.908;8.364;2023-01-23T04:52:03;12.82;;;4.57;;
66139;SDS011;52945;51.908;8.364;2023-01-23T04:55:03;12.30;;;4.18;;
66139;SDS011;52945;51.908;8.364;2023-01-23T04:58:04;9.85;;;3.92;;
66139;SDS011;52945;51.908;8.364;2023-01-23T05:01:05;8.00;;;3.38;;
66139;SDS011;52945;51.908;8.364;2023-01-23T05:04:06;10.45;;;3.75;;
66139;SDS011;52945;51.908;8.364;2023-01-23T05:07:07;8.75;;;3.72;;
66139;SDS011;52945;51.908;8.364;2023-01-23T05:10:11;12.80;;;4.05;;
66139;SDS011;52945;51.908;8.364;2023-01-23T05:13:11;11.93;;;3.90;;
66139;SDS011;52945;51.908;8.364;2023-01-23T05:16:12;8.90;;;3.83;;
66139;SDS011;52945;51.908;8.364;2023-01-23T05:19:13;10.65;;;3.80;;
66139;SDS011;52945;51.908;8.364;2023-01-23T05:22:13;11.10;;;4.30;;
66139;SDS011;52945;51.908;8.364;2023-01-23T05:25:14;11.45;;;4.90;;
66139;SDS011;52945;51.908;8.364;2023-01-23T05:28:14;10.05;;;4.18;;
66139;SDS011;52945;51.908;8.364;2023-01-23T05:31:15;11.77;;;4.05;;
66139;SDS011;52945;51.908;8.364;2023-01-23T05:34:15;8.82;;;4.25;;
66139;SDS011;52945;51.908;8.364;2023-01-23T05:37:16;12.80;;;4.88;;
66139;SDS011;52945;51.908;8.364;2023-01-23T05:40:17;11.10;;;5.03;;
66139;SDS011;52945;51.908;8.364;2023-01-23T05:43:19;8.63;;;3.92;;
66139;SDS011;52945;51.908;8.364;2023-01-23T05:46:20;9.38;;;3.95;;
66139;SDS011;52945;51.908;8.364;2023-01-23T05:49:20;8.52;;;3.45;;
66139;SDS011;52945;51.908;8.364;2023-01-23T05:52:21;10.98;;;3.80;;
66139;SDS011;52945;51.908;8.364;2023-01-23T05:55:21;10.23;;;3.83;;
66139;SDS011;52945;51.908;8.364;2023-01-23T05:58:22;9.07;;;3.67;;
66139;SDS011;52945;51.908;8.364;2023-01-23T06:01:23;11.45;;;4.35;;
66139;SDS011;52945;51.908;8.364;2023-01-23T06:04:24;10.68;;;4.10;;
66139;SDS011;52945;51.908;8.364;2023-01-23T06:07:25;10.07;;;3.83;;
66139;SDS011;52945;51.908;8.364;2023-01-23T06:10:25;7.65;;;3.70;;
66139;SDS011;52945;51.908;8.364;2023-01-23T06:13:26;10.82;;;4.07;;
66139;SDS011;52945;51.908;8.364;2023-01-23T06:16:27;6.60;;;3.10;;
66139;SDS011;52945;51.908;8.364;2023-01-23T06:19:28;8.90;;;4.03;;
66139;SDS011;52945;51.908;8.364;2023-01-23T06:22:29;7.35;;;3.58;;
66139;SDS011;52945;51.908;8.364;2023-01-23T06:25:30;7.55;;;3.92;;
66139;SDS011;52945;51.908;8.364;2023-01-23T06:28:30;10.77;;;4.55;;
66139;SDS011;52945;51.908;8.364;2023-01-23T06:31:31;11.32;;;3.78;;
66139;SDS011;52945;51.908;8.364;2023-01-23T06:34:32;10.80;;;4.10;;
66139;SDS011;52945;51.908;8.364;2023-01-23T06:37:32;10.82;;;3.85;;
66139;SDS011;52945;51.908;8.364;2023-01-23T06:40:33;11.00;;;4.35;;
66139;SDS011;52945;51.908;8.364;2023-01-23T06:43:33;10.10;;;3.80;;
66139;SDS011;52945;51.908;8.364;2023-01-23T06:46:34;10.30;;;4.15;;
66139;SDS011;52945;51.908;8.364;2023-01-23T06:49:35;9.98;;;3.67;;
66139;SDS011;52945;51.908;8.364;2023-01-23T06:52:35;10.13;;;4.30;;
66139;SDS011;52945;51.908;8.364;2023-01-23T06:55:36;17.35;;;4.80;;
66139;SDS011;52945;51.908;8.364;2023-01-23T06:58:36;17.05;;;4.88;;
66139;SDS011;52945;51.908;8.364;2023-01-23T07:01:40;11.18;;;4.60;;
66139;SDS011;52945;51.908;8.364;2023-01-23T07:04:41;10.48;;;3.38;;
66139;SDS011;52945;51.908;8.364;2023-01-23T07:07:41;10.93;;;4.18;;
66139;SDS011;52945;51.908;8.364;2023-01-23T07:10:42;10.35;;;4.45;;
66139;SDS011;52945;51.908;8.364;2023-01-23T07:13:43;11.40;;;4.45;;
66139;SDS011;52945;51.908;8.364;2023-01-23T07:16:43;8.45;;;3.00;;
66139;SDS011;52945;51.908;8.364;2023-01-23T07:19:44;11.02;;;4.00;;
66139;SDS011;52945;51.908;8.364;2023-01-23T07:22:44;7.93;;;3.75;;
66139;SDS011;52945;51.908;8.364;2023-01-23T07:25:45;7.32;;;4.05;;
66139;SDS011;52945;51.908;8.364;2023-01-23T07:28:45;9.50;;;4.07;;
66139;SDS011;52945;51.908;8.364;2023-01-23T07:31:46;6.72;;;3.63;;
66139;SDS011;52945;51.908;8.364;2023-01-23T07:34:47;10.18;;;4.03;;
66139;SDS011;52945;51.908;8.364;2023-01-23T07:37:47;10.27;;;3.55;;
66139;SDS011;52945;51.908;8.364;2023-01-23T07:40:51;11.02;;;4.43;;
66139;SDS011;52945;51.908;8.364;2023-01-23T07:43:52;10.77;;;4.20;;
66139;SDS011;52945;51.908;8.364;2023-01-23T07:46:52;7.53;;;3.38;;
66139;SDS011;52945;51.908;8.364;2023-01-23T07:49:53;10.10;;;4.22;;
66139;SDS011;52945;51.908;8.364;2023-01-23T07:52:53;9.80;;;4.45;;
66139;SDS011;52945;51.908;8.364;2023-01-23T07:55:54;12.57;;;5.35;;
66139;SDS011;52945;51.908;8.364;2023-01-23T07:58:54;12.93;;;5.55;;
66139;SDS011;52945;51.908;8.364;2023-01-23T08:01:55;11.35;;;5.05;;
66139;SDS011;52945;51.908;8.364;2023-01-23T08:04:56;13.18;;;4.70;;
66139;SDS011;52945;51.908;8.364;2023-01-23T08:07:56;12.75;;;4.47;;
66139;SDS011;52945;51.908;8.364;2023-01-23T08:10:57;9.68;;;4.47;;
66139;SDS011;52945;51.908;8.364;2023-01-23T08:13:58;12.07;;;4.47;;
66139;SDS011;52945;51.908;8.364;2023-01-23T08:16:58;8.60;;;3.75;;
66139;SDS011;52945;51.908;8.364;2023-01-23T08:20:00;8.82;;;4.22;;
66139;SDS011;52945;51.908;8.364;2023-01-23T08:23:01;8.27;;;3.67;;
66139;SDS011;52945;51.908;8.364;2023-01-23T08:26:03;10.45;;;4.47;;
66139;SDS011;52945;51.908;8.364;2023-01-23T08:29:05;11.07;;;4.35;;
66139;SDS011;52945;51.908;8.364;2023-01-23T08:32:05;10.45;;;4.32;;
66139;SDS011;52945;51.908;8.364;2023-01-23T08:35:06;11.38;;;4.28;;
66139;SDS011;52945;51.908;8.364;2023-01-23T08:38:07;9.15;;;4.28;;
66139;SDS011;52945;51.908;8.364;2023-01-23T08:41:10;9.23;;;4.05;;
66139;SDS011;52945;51.908;8.364;2023-01-23T08:44:11;10.27;;;4.93;;
66139;SDS011;52945;51.908;8.364;2023-01-23T08:47:12;9.57;;;3.70;;
66139;SDS011;52945;51.908;8.364;2023-01-23T08:50:12;12.60;;;5.05;;
66139;SDS011;52945;51.908;8.364;2023-01-23T08:53:14;10.75;;;3.42;;
66139;SDS011;52945;51.908;8.364;2023-01-23T08:56:16;10.32;;;4.65;;
66139;SDS011;52945;51.908;8.364;2023-01-23T08:59:18;10.60;;;4.28;;
66139;SDS011;52945;51.908;8.364;2023-01-23T09:02:18;10.85;;;4.32;;
66139;SDS011;52945;51.908;8.364;2023-01-23T09:05:20;14.63;;;4.88;;
66139;SDS011;52945;51.908;8.364;2023-01-23T09:08:21;10.48;;;4.22;;
66139;SDS011;52945;51.908;8.364;2023-01-23T09:11:22;12.20;;;4.95;;
66139;SDS011;52945;51.908;8.364;2023-01-23T09:14:22;12.55;;;4.35;;
66139;SDS011;52945;51.908;8.364;2023-01-23T09:17:23;8.38;;;4.13;;
66139;SDS011;52945;51.908;8.364;2023-01-23T09:20:24;12.30;;;4.88;;
66139;SDS011;52945;51.908;8.364;2023-01-23T09:23:25;9.23;;;3.97;;
66139;SDS011;52945;51.908;8.364;2023-01-23T09:26:26;7.80;;;4.10;;
66139;SDS011;52945;51.908;8.364;2023-01-23T09:29:27;8.43;;;3.67;;
66139;SDS011;52945;51.908;8.364;2023-01-23T09:32:28;9.50;;;3.80;;
66139;SDS011;52945;51.908;8.364;2023-01-23T09:35:28;12.45;;;5.07;;
66139;SDS011;52945;51.908;8.364;2023-01-23T09:38:29;11.15;;;3.90;;
66139;SDS011;52945;51.908;8.364;2023-01-23T09:41:32;10.07;;;4.63;;
66139;SDS011;52945;51.908;8.364;2023-01-23T09:57:41;13.65;;;4.38;;
66139;SDS011;52945;51.908;8.364;2023-01-23T10:00:45;9.63;;;3.90;;
66139;SDS011;52945;51.908;8.364;2023-01-23T10:03:47;10.20;;;3.75;;
66139;SDS011;52945;51.908;8.364;2023-01-23T10:06:58;12.43;;;5.00;;
66139;SDS011;52945;51.908;8.364;2023-01-23T10:10:22;12.05;;;5.00;;
66139;SDS011;52945;51.908;8.364;2023-01-23T10:13:53;11.32;;;5.00;;
66139;SDS011;52945;51.908;8.364;2023-01-23T10:23:40;13.18;;;6.22;;
66139;SDS011;52945;51.908;8.364;2023-01-23T10:26:50;12.23;;;4.95;;
66139;SDS011;52945;51.908;8.364;2023-01-23T10:30:04;10.45;;;5.53;;
66139;SDS011;52945;51.908;8.364;2023-01-23T10:33:14;13.20;;;5.68;;
66139;SDS011;52945;51.908;8.364;2023-01-23T10:36:20;11.57;;;5.03;;
66139;SDS011;52945;51.908;8.364;2023-01-23T10:39:28;16.02;;;5.75;;
66139;SDS011;52945;51.908;8.364;2023-01-23T10:42:34;12.20;;;5.88;;
66139;SDS011;52945;51.908;8.364;2023-01-23T10:45:35;16.50;;;5.05;;
66139;SDS011;52945;51.908;8.364;2023-01-23T10:48:38;14.85;;;6.15;;
66139;SDS011;52945;51.908;8.364;2023-01-23T10:51:58;12.82;;;4.63;;
66139;SDS011;52945;51.908;8.364;2023-01-23T10:54:59;14.30;;;5.18;;
66139;SDS011;52945;51.908;8.364;2023-01-23T10:58:01;13.07;;;4.85;;
66139;SDS011;52945;51.908;8.364;2023-01-23T11:01:02;12.48;;;5.07;;
66139;SDS011;52945;51.908;8.364;2023-01-23T11:04:09;15.10;;;4.97;;
66139;SDS011;52945;51.908;8.364;2023-01-23T11:07:12;13.45;;;5.53;;
66139;SDS011;52945;51.908;8.364;2023-01-23T11:10:17;15.27;;;5.78;;
66139;SDS011;52945;51.908;8.364;2023-01-23T11:13:24;13.68;;;4.60;;
66139;SDS011;52945;51.908;8.364;2023-01-23T11:16:27;10.07;;;4.68;;
66139;SDS011;52945;51.908;8.364;2023-01-23T11:19:28;11.18;;;4.93;;
66139;SDS011;52945;51.908;8.364;2023-01-23T11:22:38;13.90;;;5.80;;
66139;SDS011;52945;51.908;8.364;2023-01-23T11:25:41;11.75;;;4.57;;
66139;SDS011;52945;51.908;8.364;2023-01-23T11:28:47;9.73;;;5.07;;
66139;SDS011;52945;51.908;8.364;2023-01-23T11:31:50;10.88;;;4.40;;
66139;SDS011;52945;51.908;8.364;2023-01-23T11:35:33;11.48;;;5.25;;
66139;SDS011;52945;51.908;8.364;2023-01-23T11:38:27;11.13;;;4.68;;
66139;SDS011;52945;51.908;8.364;2023-01-23T11:41:35;11.57;;;5.18;;
66139;SDS011;52945;51.908;8.364;2023-01-23T11:44:36;15.27;;;6.03;;
66139;SDS011;52945;51.908;8.364;2023-01-23T11:50:54;13.60;;;5.55;;
66139;SDS011;52945;51.908;8.364;2023-01-23T11:54:24;13.05;;;5.55;;
66139;SDS011;52945;51.908;8.364;2023-01-23T12:20:45;16.48;;;5.65;;
66139;SDS011;52945;51.908;8.364;2023-01-23T12:27:44;11.75;;;4.88;;
66139;SDS011;52945;51.908;8.364;2023-01-23T12:40:03;14.20;;;5.20;;
66139;SDS011;52945;51.908;8.364;2023-01-23T12:43:32;11.50;;;4.57;;
66139;SDS011;52945;51.908;8.364;2023-01-23T12:46:54;13.35;;;4.53;;
66139;SDS011;52945;51.908;8.364;2023-01-23T12:50:15;15.88;;;5.10;;
66139;SDS011;52945;51.908;8.364;2023-01-23T12:53:21;12.80;;;4.80;;
66139;SDS011;52945;51.908;8.364;2023-01-23T12:56:29;13.07;;;4.53;;
66139;SDS011;52945;51.908;8.364;2023-01-23T13:03:24;8.65;;;4.20;;
66139;SDS011;52945;51.908;8.364;2023-01-23T13:10:09;8.38;;;4.15;;
66139;SDS011;52945;51.908;8.364;2023-01-23T13:13:47;8.57;;;3.80;;
66139;SDS011;52945;51.908;8.364;2023-01-23T13:16:49;10.07;;;4.80;;
66139;SDS011;52945;51.908;8.364;2023-01-23T13:19:51;11.10;;;3.95;;
66139;SDS011;52945;51.908;8.364;2023-01-23T13:23:43;11.35;;;5.15;;
66139;SDS011;52945;51.908;8.364;2023-01-23T13:26:37;12.45;;;5.13;;
66139;SDS011;52945;51.908;8.364;2023-01-23T13:29:47;11.45;;;4.65;;
66139;SDS011;52945;51.908;8.364;2023-01-23T13:32:52;12.63;;;5.63;;
66139;SDS011;52945;51.908;8.364;2023-01-23T13:35:55;11.05;;;4.63;;
66139;SDS011;52945;51.908;8.364;2023-01-23T13:39:43;10.82;;;4.40;;
66139;SDS011;52945;51.908;8.364;2023-01-23T13:45:22;11.30;;;4.93;;
66139;SDS011;52945;51.908;8.364;2023-01-23T13:48:33;11.27;;;4.78;;
66139;SDS011;52945;51.908;8.364;2023-01-23T13:52:05;15.45;;;4.80;;
66139;SDS011;52945;51.908;8.364;2023-01-23T13:55:28;9.82;;;4.13;;
66139;SDS011;52945;51.908;8.364;2023-01-23T13:58:51;12.35;;;4.68;;
66139;SDS011;52945;51.908;8.364;2023-01-23T14:02:00;11.55;;;5.28;;
66139;SDS011;52945;51.908;8.364;2023-01-23T14:05:35;14.43;;;4.70;;
66139;SDS011;52945;51.908;8.364;2023-01-23T14:08:45;9.02;;;4.47;;
66139;SDS011;52945;51.908;8.364;2023-01-23T14:11:57;13.48;;;5.43;;
66139;SDS011;52945;51.908;8.364;2023-01-23T14:15:01;17.00;;;5.10;;
66139;SDS011;52945;51.908;8.364;2023-01-23T14:21:28;12.25;;;4.85;;
66139;SDS011;52945;51.908;8.364;2023-01-23T14:24:41;12.75;;;5.18;;
66139;SDS011;52945;51.908;8.364;2023-01-23T14:27:44;13.40;;;5.07;;
66139;SDS011;52945;51.908;8.364;2023-01-23T14:30:51;10.85;;;4.80;;
66139;SDS011;52945;51.908;8.364;2023-01-23T14:40:03;11.40;;;4.32;;
66139;SDS011;52945;51.908;8.364;2023-01-23T14:43:15;9.13;;;4.47;;
66139;SDS011;52945;51.908;8.364;2023-01-23T14:46:20;14.23;;;5.22;;
66139;SDS011;52945;51.908;8.364;2023-01-23T14:49:34;12.00;;;4.15;;
66139;SDS011;52945;51.908;8.364;2023-01-23T14:52:36;11.13;;;4.75;;
66139;SDS011;52945;51.908;8.364;2023-01-23T14:55:38;11.07;;;4.57;;
66139;SDS011;52945;51.908;8.364;2023-01-23T14:58:40;11.02;;;5.10;;
66139;SDS011;52945;51.908;8.364;2023-01-23T15:01:42;16.48;;;4.55;;
66139;SDS011;52945;51.908;8.364;2023-01-23T15:08:31;16.58;;;5.50;;
66139;SDS011;52945;51.908;8.364;2023-01-23T15:11:32;16.42;;;5.05;;
66139;SDS011;52945;51.908;8.364;2023-01-23T15:14:35;13.50;;;5.47;;
66139;SDS011;52945;51.908;8.364;2023-01-23T15:17:37;16.75;;;5.00;;
66139;SDS011;52945;51.908;8.364;2023-01-23T15:20:43;12.98;;;4.68;;
66139;SDS011;52945;51.908;8.364;2023-01-23T15:23:59;13.38;;;4.72;;
66139;SDS011;52945;51.908;8.364;2023-01-23T15:27:18;17.10;;;6.22;;
66139;SDS011;52945;51.908;8.364;2023-01-23T15:30:35;17.08;;;5.65;;
66139;SDS011;52945;51.908;8.364;2023-01-23T15:33:39;12.80;;;5.20;;
66139;SDS011;52945;51.908;8.364;2023-01-23T15:39:59;11.95;;;4.80;;
66139;SDS011;52945;51.908;8.364;2023-01-23T15:43:04;14.32;;;5.80;;
66139;SDS011;52945;51.908;8.364;2023-01-23T15:46:10;14.05;;;5.50;;
66139;SDS011;52945;51.908;8.364;2023-01-23T15:49:11;13.95;;;5.18;;
66139;SDS011;52945;51.908;8.364;2023-01-23T15:55:25;12.18;;;4.95;;
66139;SDS011;52945;51.908;8.364;2023-01-23T15:58:27;15.32;;;4.97;;
66139;SDS011;52945;51.908;8.364;2023-01-23T16:01:27;14.27;;;5.50;;
66139;SDS011;52945;51.908;8.364;2023-01-23T16:04:28;12.68;;;5.05;;
66139;SDS011;52945;51.908;8.364;2023-01-23T16:07:30;12.93;;;4.90;;
66139;SDS011;52945;51.908;8.364;2023-01-23T16:10:34;11.68;;;5.32;;
66139;SDS011;52945;51.908;8.364;2023-01-23T16:13:36;11.32;;;4.82;;
66139;SDS011;52945;51.908;8.364;2023-01-23T16:16:37;14.55;;;4.95;;
66139;SDS011;52945;51.908;8.364;2023-01-23T16:19:37;13.38;;;4.80;;
66139;SDS011;52945;51.908;8.364;2023-01-23T16:22:38;16.67;;;5.68;;
66139;SDS011;52945;51.908;8.364;2023-01-23T16:25:39;14.07;;;5.22;;
66139;SDS011;52945;51.908;8.364;2023-01-23T16:28:41;13.45;;;6.05;;
66139;SDS011;52945;51.908;8.364;2023-01-23T16:31:42;13.43;;;5.38;;
66139;SDS011;52945;51.908;8.364;2023-01-23T16:34:42;14.80;;;5.32;;
66139;SDS011;52945;51.908;8.364;2023-01-23T16:37:44;14.90;;;5.85;;
66139;SDS011;52945;51.908;8.364;2023-01-23T16:40:47;14.52;;;5.95;;
66139;SDS011;52945;51.908;8.364;2023-01-23T16:43:50;14.43;;;5.47;;
66139;SDS011;52945;51.908;8.364;2023-01-23T16:46:51;14.32;;;5.65;;
66139;SDS011;52945;51.908;8.364;2023-01-23T16:49:52;13.38;;;5.65;;
66139;SDS011;52945;51.908;8.364;2023-01-23T16:53:00;13.73;;;5.63;;
66139;SDS011;52945;51.908;8.364;2023-01-23T16:56:07;18.60;;;7.13;;
66139;SDS011;52945;51.908;8.364;2023-01-23T16:59:28;18.00;;;6.88;;
66139;SDS011;52945;51.908;8.364;2023-01-23T17:02:34;15.63;;;5.80;;
66139;SDS011;52945;51.908;8.364;2023-01-23T17:05:35;15.25;;;6.32;;
66139;SDS011;52945;51.908;8.364;2023-01-23T17:08:36;18.67;;;7.53;;
66139;SDS011;52945;51.908;8.364;2023-01-23T17:11:38;17.55;;;7.00;;
66139;SDS011;52945;51.908;8.364;2023-01-23T17:15:06;14.00;;;5.47;;
66139;SDS011;52945;51.908;8.364;2023-01-23T17:18:20;16.20;;;6.13;;
66139;SDS011;52945;51.908;8.364;2023-01-23T17:21:29;17.13;;;6.13;;
66139;SDS011;52945;51.908;8.364;2023-01-23T17:24:32;15.05;;;6.13;;
66139;SDS011;52945;51.908;8.364;2023-01-23T17:27:33;15.65;;;6.18;;
66139;SDS011;52945;51.908;8.364;2023-01-23T17:30:33;17.67;;;6.75;;
66139;SDS011;52945;51.908;8.364;2023-01-23T17:33:34;17.77;;;6.53;;
66139;SDS011;52945;51.908;8.364;2023-01-23T17:36:35;15.23;;;6.78;;
66139;SDS011;52945;51.908;8.364;2023-01-23T17:39:35;10.95;;;5.07;;
66139;SDS011;52945;51.908;8.364;2023-01-23T17:42:36;17.50;;;6.18;;
66139;SDS011;52945;51.908;8.364;2023-01-23T17:45:36;14.13;;;4.88;;
66139;SDS011;52945;51.908;8.364;2023-01-23T17:48:38;19.50;;;7.43;;
66139;SDS011;52945;51.908;8.364;2023-01-23T17:51:40;16.88;;;6.40;;
66139;SDS011;52945;51.908;8.364;2023-01-23T17:54:40;16.40;;;6.57;;
66139;SDS011;52945;51.908;8.364;2023-01-23T17:57:41;18.90;;;6.60;;
66139;SDS011;52945;51.908;8.364;2023-01-23T18:00:42;20.67;;;7.25;;
66139;SDS011;52945;51.908;8.364;2023-01-23T18:03:45;15.32;;;6.10;;
66139;SDS011;52945;51.908;8.364;2023-01-23T18:06:47;19.33;;;7.05;;
66139;SDS011;52945;51.908;8.364;2023-01-23T18:16:40;23.05;;;7.90;;
66139;SDS011;52945;51.908;8.364;2023-01-23T18:22:44;15.68;;;6.20;;
66139;SDS011;52945;51.908;8.364;2023-01-23T18:25:45;12.98;;;5.57;;
66139;SDS011;52945;51.908;8.364;2023-01-23T18:32:19;16.88;;;6.22;;
66139;SDS011;52945;51.908;8.364;2023-01-23T18:35:46;16.02;;;5.78;;
66139;SDS011;52945;51.908;8.364;2023-01-23T18:42:32;21.63;;;6.57;;
66139;SDS011;52945;51.908;8.364;2023-01-23T18:45:37;19.30;;;7.30;;
66139;SDS011;52945;51.908;8.364;2023-01-23T18:48:39;19.73;;;6.78;;
66139;SDS011;52945;51.908;8.364;2023-01-23T18:51:45;12.32;;;5.25;;
66139;SDS011;52945;51.908;8.364;2023-01-23T18:55:23;14.75;;;5.32;;
66139;SDS011;52945;51.908;8.364;2023-01-23T19:02:29;15.15;;;5.35;;
66139;SDS011;52945;51.908;8.364;2023-01-23T19:05:39;16.00;;;5.65;;
66139;SDS011;52945;51.908;8.364;2023-01-23T19:08:40;17.63;;;5.70;;
66139;SDS011;52945;51.908;8.364;2023-01-23T19:15:09;14.35;;;5.78;;
66139;SDS011;52945;51.908;8.364;2023-01-23T19:21:20;16.67;;;6.75;;
66139;SDS011;52945;51.908;8.364;2023-01-23T19:24:24;19.92;;;7.70;;
66139;SDS011;52945;51.908;8.364;2023-01-23T19:27:26;19.20;;;6.43;;
66139;SDS011;52945;51.908;8.364;2023-01-23T19:30:30;15.43;;;7.20;;
66139;SDS011;52945;51.908;8.364;2023-01-23T19:33:31;19.20;;;6.90;;
66139;SDS011;52945;51.908;8.364;2023-01-23T19:36:33;18.95;;;6.47;;
66139;SDS011;52945;51.908;8.364;2023-01-23T19:39:35;14.50;;;6.10;;
66139;SDS011;52945;51.908;8.364;2023-01-23T19:42:36;17.05;;;6.78;;
66139;SDS011;52945;51.908;8.364;2023-01-23T19:45:38;14.05;;;5.80;;
66139;SDS011;52945;51.908;8.364;2023-01-23T19:48:39;17.52;;;7.18;;
66139;SDS011;52945;51.908;8.364;2023-01-23T19:51:39;14.45;;;5.63;;
66139;SDS011;52945;51.908;8.364;2023-01-23T19:54:40;17.75;;;6.32;;
66139;SDS011;52945;51.908;8.364;2023-01-23T19:57:41;13.45;;;5.30;;
66139;SDS011;52945;51.908;8.364;2023-01-23T20:00:41;15.60;;;6.22;;
66139;SDS011;52945;51.908;8.364;2023-01-23T20:03:42;17.38;;;5.93;;
66139;SDS011;52945;51.908;8.364;2023-01-23T20:06:43;13.27;;;5.45;;
66139;SDS011;52945;51.908;8.364;2023-01-23T20:09:48;13.60;;;5.63;;
66139;SDS011;52945;51.908;8.364;2023-01-23T20:12:49;17.00;;;5.00;;
66139;SDS011;52945;51.908;8.364;2023-01-23T20:15:55;11.00;;;4.60;;
66139;SDS011;52945;51.908;8.364;2023-01-23T20:18:56;14.88;;;5.40;;